Gill, South Dakota
Current Conditions -  °F | °C
As of 2:35 AM on Monday 24 Nov 2014 (Local Time) from KSPF Reporting Station
Few Clouds Few Clouds  
Wind Chill: 21°   Ceiling: Unl
Heat Index: 30°   Visibility: 10mi
Dew Point: 16°   Wind: 12mph
Humidity: 55%   Direction: 280°W
Pressure: 29.77"   Gusts: NA
Location:  44.9094°N, 103.193°W
Report Text: KSPF 240935Z AUTO 28010KT 10SM FEW060 M01/M09 A2977 RMK AO2
Loading
Personal Weather Stations






























Interactive Weather Map New forecast layout! Learn more

10-Day Weather Forecast

Advertisements
Track Severe Weather on mobile